sensor_id;sensor_type;location;lat;lon;timestamp;pressure;altitude;pressure_sealevel;temperature;humidity
80124;BME280;69433;48.642;9.142;2023-08-08T00:00:22;97171.88;;;21.92;40.44
80124;BME280;69433;48.642;9.142;2023-08-08T00:02:47;97178.16;;;21.71;41.26
80124;BME280;69433;48.642;9.142;2023-08-08T00:05:13;97175.16;;;21.62;41.30
80124;BME280;69433;48.642;9.142;2023-08-08T00:07:38;97172.06;;;21.70;41.01
80124;BME280;69433;48.642;9.142;2023-08-08T00:10:03;97174.00;;;21.63;41.51
80124;BME280;69433;48.642;9.142;2023-08-08T00:12:29;97175.19;;;21.55;41.22
80124;BME280;69433;48.642;9.142;2023-08-08T00:14:54;97165.69;;;21.50;40.91
80124;BME280;69433;48.642;9.142;2023-08-08T00:17:19;97167.63;;;21.42;41.43
80124;BME280;69433;48.642;9.142;2023-08-08T00:19:45;97170.72;;;21.37;40.96
80124;BME280;69433;48.642;9.142;2023-08-08T00:22:10;97172.63;;;21.37;41.62
80124;BME280;69433;48.642;9.142;2023-08-08T00:24:36;97173.81;;;21.32;41.34
80124;BME280;69433;48.642;9.142;2023-08-08T00:27:01;97174.97;;;21.28;41.17
80124;BME280;69433;48.642;9.142;2023-08-08T00:29:26;97179.97;;;21.19;41.57
80124;BME280;69433;48.642;9.142;2023-08-08T00:31:51;97181.47;;;21.16;41.56
80124;BME280;69433;48.642;9.142;2023-08-08T00:34:17;97179.19;;;21.18;41.66
80124;BME280;69433;48.642;9.142;2023-08-08T00:36:42;97181.47;;;21.16;41.75
80124;BME280;69433;48.642;9.142;2023-08-08T00:39:07;97179.97;;;21.08;41.71
80124;BME280;69433;48.642;9.142;2023-08-08T00:41:33;97187.25;;;21.04;42.18
80124;BME280;69433;48.642;9.142;2023-08-08T00:43:58;97187.25;;;21.04;42.00
80124;BME280;69433;48.642;9.142;2023-08-08T00:46:23;97179.59;;;21.06;41.91
80124;BME280;69433;48.642;9.142;2023-08-08T00:48:51;97171.19;;;21.07;42.09
80124;BME280;69433;48.642;9.142;2023-08-08T00:51:17;97179.25;;;21.04;42.00
80124;BME280;69433;48.642;9.142;2023-08-08T00:53:44;97178.88;;;21.02;41.72
80124;BME280;69433;48.642;9.142;2023-08-08T00:56:12;97170.81;;;21.09;42.32
80124;BME280;69433;48.642;9.142;2023-08-08T00:58:38;97170.03;;;21.23;42.67
80124;BME280;69433;48.642;9.142;2023-08-08T01:01:03;97166.56;;;21.15;42.23
80124;BME280;69433;48.642;9.142;2023-08-08T01:03:28;97163.97;;;21.04;42.07
80124;BME280;69433;48.642;9.142;2023-08-08T01:06:02;97158.22;;;21.06;42.10
80124;BME280;69433;48.642;9.142;2023-08-08T01:08:35;97170.09;;;20.98;42.30
80124;BME280;69433;48.642;9.142;2023-08-08T01:11:03;97166.28;;;20.95;42.41
80124;BME280;69433;48.642;9.142;2023-08-08T01:13:30;97169.34;;;20.90;42.27
80124;BME280;69433;48.642;9.142;2023-08-08T01:15:58;97162.47;;;20.93;42.39
80124;BME280;69433;48.642;9.142;2023-08-08T01:18:25;97156.75;;;20.94;42.54
80124;BME280;69433;48.642;9.142;2023-08-08T01:20:52;97155.63;;;20.88;42.19
80124;BME280;69433;48.642;9.142;2023-08-08T01:23:33;97158.66;;;20.90;42.28
80124;BME280;69433;48.642;9.142;2023-08-08T01:25:59;97169.34;;;20.94;42.47
80124;BME280;69433;48.642;9.142;2023-08-08T01:28:26;97165.16;;;20.93;41.95
80124;BME280;69433;48.642;9.142;2023-08-08T01:30:51;97153.31;;;20.87;42.06
80124;BME280;69433;48.642;9.142;2023-08-08T01:33:17;97154.13;;;20.84;42.56
80124;BME280;69433;48.642;9.142;2023-08-08T01:35:48;97149.53;;;20.81;42.36
80124;BME280;69433;48.642;9.142;2023-08-08T01:38:26;97153.34;;;20.80;42.49
80124;BME280;69433;48.642;9.142;2023-08-08T01:40:55;97149.13;;;20.86;42.62
80124;BME280;69433;48.642;9.142;2023-08-08T01:43:21;97143.44;;;20.84;42.52
80124;BME280;69433;48.642;9.142;2023-08-08T01:45:48;97135.41;;;20.84;42.51
80124;BME280;69433;48.642;9.142;2023-08-08T01:48:13;97144.84;;;21.06;42.20
80124;BME280;69433;48.642;9.142;2023-08-08T01:50:38;97137.09;;;21.36;41.76
80124;BME280;69433;48.642;9.142;2023-08-08T01:53:04;97135.81;;;21.59;41.52
80124;BME280;69433;48.642;9.142;2023-08-08T01:55:30;97131.88;;;21.74;41.21
80124;BME280;69433;48.642;9.142;2023-08-08T01:57:56;97127.59;;;21.87;41.00
80124;BME280;69433;48.642;9.142;2023-08-08T02:00:21;97128.28;;;21.98;40.78
80124;BME280;69433;48.642;9.142;2023-08-08T02:02:47;97127.06;;;22.06;40.89
80124;BME280;69433;48.642;9.142;2023-08-08T02:05:12;97135.78;;;22.14;40.75
80124;BME280;69433;48.642;9.142;2023-08-08T02:07:38;97136.47;;;22.21;40.73
80124;BME280;69433;48.642;9.142;2023-08-08T02:10:03;97136.06;;;22.27;40.56
80124;BME280;69433;48.642;9.142;2023-08-08T02:12:28;97132.94;;;22.32;40.52
80124;BME280;69433;48.642;9.142;2023-08-08T02:14:56;97137.88;;;22.37;40.61
80124;BME280;69433;48.642;9.142;2023-08-08T02:17:21;97129.47;;;22.38;40.62
80124;BME280;69433;48.642;9.142;2023-08-08T02:19:46;97126.72;;;22.42;40.43
80124;BME280;69433;48.642;9.142;2023-08-08T02:22:12;97124.41;;;22.44;40.50
80124;BME280;69433;48.642;9.142;2023-08-08T02:24:37;97117.13;;;22.48;40.45
80124;BME280;69433;48.642;9.142;2023-08-08T02:27:02;97120.91;;;22.50;40.24
80124;BME280;69433;48.642;9.142;2023-08-08T02:29:28;97123.19;;;22.52;40.38
80124;BME280;69433;48.642;9.142;2023-08-08T02:31:53;97125.06;;;22.55;40.29
80124;BME280;69433;48.642;9.142;2023-08-08T02:34:18;97121.22;;;22.56;40.22
80124;BME280;69433;48.642;9.142;2023-08-08T02:36:44;97128.13;;;22.57;40.36
80124;BME280;69433;48.642;9.142;2023-08-08T02:39:09;97121.19;;;22.59;40.23
80124;BME280;69433;48.642;9.142;2023-08-08T02:41:34;97116.94;;;22.62;40.27
80124;BME280;69433;48.642;9.142;2023-08-08T02:44:00;97119.63;;;22.62;40.35
80124;BME280;69433;48.642;9.142;2023-08-08T02:46:26;97118.88;;;22.62;40.34
80124;BME280;69433;48.642;9.142;2023-08-08T02:48:51;97126.50;;;22.63;40.29
80124;BME280;69433;48.642;9.142;2023-08-08T02:51:17;97126.13;;;22.65;40.36
80124;BME280;69433;48.642;9.142;2023-08-08T02:53:43;97122.66;;;22.64;40.19
80124;BME280;69433;48.642;9.142;2023-08-08T02:56:08;97122.66;;;22.64;40.20
80124;BME280;69433;48.642;9.142;2023-08-08T02:58:34;97129.94;;;22.64;40.22
80124;BME280;69433;48.642;9.142;2023-08-08T03:00:59;97118.06;;;22.65;40.41
80124;BME280;69433;48.642;9.142;2023-08-08T03:03:24;97121.50;;;22.65;40.37
80124;BME280;69433;48.642;9.142;2023-08-08T03:05:50;97117.69;;;22.66;40.25
80124;BME280;69433;48.642;9.142;2023-08-08T03:08:15;97113.09;;;22.67;40.27
80124;BME280;69433;48.642;9.142;2023-08-08T03:10:40;97119.19;;;22.67;40.39
80124;BME280;69433;48.642;9.142;2023-08-08T03:13:06;97120.72;;;22.68;40.21
80124;BME280;69433;48.642;9.142;2023-08-08T03:15:34;97113.41;;;22.69;40.33
80124;BME280;69433;48.642;9.142;2023-08-08T03:18:00;97119.16;;;22.71;40.03
80124;BME280;69433;48.642;9.142;2023-08-08T03:20:25;97118.00;;;22.72;41.19
80124;BME280;69433;48.642;9.142;2023-08-08T03:22:51;97118.34;;;22.77;43.50
80124;BME280;69433;48.642;9.142;2023-08-08T03:25:17;97114.09;;;22.80;44.30
80124;BME280;69433;48.642;9.142;2023-08-08T03:27:42;97115.22;;;22.82;43.80
80124;BME280;69433;48.642;9.142;2023-08-08T03:30:09;97110.63;;;22.83;43.14
80124;BME280;69433;48.642;9.142;2023-08-08T03:32:35;97117.69;;;22.66;42.59
80124;BME280;69433;48.642;9.142;2023-08-08T03:35:00;97117.13;;;22.48;42.77
80124;BME280;69433;48.642;9.142;2023-08-08T03:37:25;97119.06;;;22.44;43.38
80124;BME280;69433;48.642;9.142;2023-08-08T03:39:50;97117.16;;;22.41;43.25
80124;BME280;69433;48.642;9.142;2023-08-08T03:42:18;97120.28;;;22.36;43.39
80124;BME280;69433;48.642;9.142;2023-08-08T03:44:43;97111.13;;;22.33;43.33
80124;BME280;69433;48.642;9.142;2023-08-08T03:47:10;97111.88;;;22.34;43.60
80124;BME280;69433;48.642;9.142;2023-08-08T03:49:35;97118.78;;;22.31;43.63
80124;BME280;69433;48.642;9.142;2023-08-08T03:52:00;97118.78;;;22.35;43.50
80124;BME280;69433;48.642;9.142;2023-08-08T03:54:26;97112.09;;;22.50;43.37
80124;BME280;69433;48.642;9.142;2023-08-08T03:56:51;97120.78;;;22.61;43.02
80124;BME280;69433;48.642;9.142;2023-08-08T03:59:16;97118.03;;;22.68;42.96
80124;BME280;69433;48.642;9.142;2023-08-08T04:01:42;97122.19;;;22.73;42.65
80124;BME280;69433;48.642;9.142;2023-08-08T04:04:08;97118.00;;;22.75;42.72
80124;BME280;69433;48.642;9.142;2023-08-08T04:06:33;97122.13;;;22.80;42.75
80124;BME280;69433;48.642;9.142;2023-08-08T04:08:59;97124.41;;;22.81;42.76
80124;BME280;69433;48.642;9.142;2023-08-08T04:11:26;97126.31;;;22.84;42.42
80124;BME280;69433;48.642;9.142;2023-08-08T04:13:51;97129.75;;;22.85;42.30
80124;BME280;69433;48.642;9.142;2023-08-08T04:16:17;97123.63;;;22.84;42.21
80124;BME280;69433;48.642;9.142;2023-08-08T04:18:42;97120.94;;;22.84;42.36
80124;BME280;69433;48.642;9.142;2023-08-08T04:21:08;97125.94;;;22.82;42.14
80124;BME280;69433;48.642;9.142;2023-08-08T04:23:33;97126.34;;;22.81;42.39
80124;BME280;69433;48.642;9.142;2023-08-08T04:26:04;97132.81;;;22.83;42.35
80124;BME280;69433;48.642;9.142;2023-08-08T04:28:30;97142.00;;;22.86;42.43
80124;BME280;69433;48.642;9.142;2023-08-08T04:30:55;97135.03;;;22.88;42.39
80124;BME280;69433;48.642;9.142;2023-08-08T04:33:20;97135.81;;;22.89;42.13
80124;BME280;69433;48.642;9.142;2023-08-08T04:35:45;97131.22;;;22.89;42.03
80124;BME280;69433;48.642;9.142;2023-08-08T04:38:14;97129.28;;;22.90;41.91
80124;BME280;69433;48.642;9.142;2023-08-08T04:40:40;97127.38;;;22.90;42.17
80124;BME280;69433;48.642;9.142;2023-08-08T04:43:05;97128.88;;;22.91;41.91
80124;BME280;69433;48.642;9.142;2023-08-08T04:45:30;97128.53;;;22.89;41.85
80124;BME280;69433;48.642;9.142;2023-08-08T04:47:55;97127.38;;;22.90;41.88
80124;BME280;69433;48.642;9.142;2023-08-08T04:50:21;97135.78;;;22.92;41.61
80124;BME280;69433;48.642;9.142;2023-08-08T04:52:46;97131.56;;;22.91;41.94
80124;BME280;69433;48.642;9.142;2023-08-08T04:55:12;97138.09;;;22.90;41.95
80124;BME280;69433;48.642;9.142;2023-08-08T04:57:37;97138.47;;;22.92;41.77
80124;BME280;69433;48.642;9.142;2023-08-08T05:00:02;97139.63;;;22.91;41.71
80124;BME280;69433;48.642;9.142;2023-08-08T05:02:30;97142.66;;;22.93;41.90
80124;BME280;69433;48.642;9.142;2023-08-08T05:04:56;97141.13;;;22.92;41.89
80124;BME280;69433;48.642;9.142;2023-08-08T05:07:27;97141.13;;;22.92;41.59
80124;BME280;69433;48.642;9.142;2023-08-08T05:09:53;97146.09;;;22.94;41.71
80124;BME280;69433;48.642;9.142;2023-08-08T05:12:18;97141.50;;;22.94;41.71
80124;BME280;69433;48.642;9.142;2023-08-08T05:14:43;97141.88;;;22.97;41.58
80124;BME280;69433;48.642;9.142;2023-08-08T05:17:09;97134.16;;;22.99;41.49
80124;BME280;69433;48.642;9.142;2023-08-08T05:19:34;97134.91;;;22.99;41.59
80124;BME280;69433;48.642;9.142;2023-08-08T05:21:59;97126.88;;;22.99;41.55
80124;BME280;69433;48.642;9.142;2023-08-08T05:24:25;97125.31;;;23.02;41.38
80124;BME280;69433;48.642;9.142;2023-08-08T05:26:51;97129.53;;;23.03;41.28
80124;BME280;69433;48.642;9.142;2023-08-08T05:29:16;97128.38;;;23.04;41.42
80124;BME280;69433;48.642;9.142;2023-08-08T05:31:41;97125.31;;;23.02;41.49
80124;BME280;69433;48.642;9.142;2023-08-08T05:34:07;97118.03;;;23.02;41.31
80124;BME280;69433;48.642;9.142;2023-08-08T05:36:32;97126.03;;;23.06;41.40
80124;BME280;69433;48.642;9.142;2023-08-08T05:38:58;97119.09;;;23.08;41.36
80124;BME280;69433;48.642;9.142;2023-08-08T05:41:23;97122.53;;;23.09;41.34
80124;BME280;69433;48.642;9.142;2023-08-08T05:43:48;97122.53;;;23.09;41.33
80124;BME280;69433;48.642;9.142;2023-08-08T05:46:13;97120.22;;;23.11;41.51
80124;BME280;69433;48.642;9.142;2023-08-08T05:48:39;97119.06;;;23.12;41.46
80124;BME280;69433;48.642;9.142;2023-08-08T05:51:04;97125.59;;;23.11;41.30
80124;BME280;69433;48.642;9.142;2023-08-08T05:53:31;97129.78;;;23.12;41.22
80124;BME280;69433;48.642;9.142;2023-08-08T05:55:57;97130.16;;;23.14;41.40
80124;BME280;69433;48.642;9.142;2023-08-08T05:58:22;97137.81;;;23.15;41.32
80124;BME280;69433;48.642;9.142;2023-08-08T06:00:49;97136.69;;;23.13;41.51
80124;BME280;69433;48.642;9.142;2023-08-08T06:03:15;97130.16;;;23.14;41.21
80124;BME280;69433;48.642;9.142;2023-08-08T06:05:40;97140.06;;;23.17;41.43
80124;BME280;69433;48.642;9.142;2023-08-08T06:08:05;97140.41;;;23.19;41.37
80124;BME280;69433;48.642;9.142;2023-08-08T06:10:36;97141.94;;;23.20;41.18
80124;BME280;69433;48.642;9.142;2023-08-08T06:13:01;97140.78;;;23.21;41.04
80124;BME280;69433;48.642;9.142;2023-08-08T06:15:27;97136.94;;;23.22;41.01
80124;BME280;69433;48.642;9.142;2023-08-08T06:17:52;97141.53;;;23.21;41.23
80124;BME280;69433;48.642;9.142;2023-08-08T06:20:17;97136.13;;;23.25;41.13
80124;BME280;69433;48.642;9.142;2023-08-08T06:22:42;97136.13;;;23.25;40.89
80124;BME280;69433;48.642;9.142;2023-08-08T06:25:08;97134.56;;;23.27;40.91
80124;BME280;69433;48.642;9.142;2023-08-08T06:27:33;97128.03;;;23.28;41.04
80124;BME280;69433;48.642;9.142;2023-08-08T06:29:58;97122.66;;;23.28;40.95
80124;BME280;69433;48.642;9.142;2023-08-08T06:32:24;97130.72;;;23.28;40.89
80124;BME280;69433;48.642;9.142;2023-08-08T06:35:02;97122.63;;;23.32;41.14
80124;BME280;69433;48.642;9.142;2023-08-08T06:37:28;97126.38;;;23.38;41.28
80124;BME280;69433;48.642;9.142;2023-08-08T06:39:53;97127.13;;;23.39;41.14
80124;BME280;69433;48.642;9.142;2023-08-08T06:42:18;97125.16;;;23.43;41.08
80124;BME280;69433;48.642;9.142;2023-08-08T06:44:44;97123.16;;;23.47;41.00
80124;BME280;69433;48.642;9.142;2023-08-08T06:47:10;97120.47;;;23.50;41.08
80124;BME280;69433;48.642;9.142;2023-08-08T06:49:36;97117.00;;;23.53;41.00
80124;BME280;69433;48.642;9.142;2023-08-08T06:52:02;97124.56;;;23.58;40.95
80124;BME280;69433;48.642;9.142;2023-08-08T06:54:27;97117.25;;;23.62;41.15
80124;BME280;69433;48.642;9.142;2023-08-08T06:56:53;97121.78;;;23.65;41.23
80124;BME280;69433;48.642;9.142;2023-08-08T06:59:19;97120.56;;;23.70;40.87
80124;BME280;69433;48.642;9.142;2023-08-08T07:01:46;97120.09;;;23.75;41.14
80124;BME280;69433;48.642;9.142;2023-08-08T07:04:11;97118.53;;;23.78;41.12
80124;BME280;69433;48.642;9.142;2023-08-08T07:06:37;97125.38;;;23.82;41.18
80124;BME280;69433;48.642;9.142;2023-08-08T07:09:02;97123.00;;;23.84;40.87
80124;BME280;69433;48.642;9.142;2023-08-08T07:11:27;97122.59;;;23.86;41.23
80124;BME280;69433;48.642;9.142;2023-08-08T07:13:53;97120.69;;;23.86;42.42
80124;BME280;69433;48.642;9.142;2023-08-08T07:16:20;97120.00;;;23.82;42.09
80124;BME280;69433;48.642;9.142;2023-08-08T07:18:46;97124.66;;;23.78;41.82
80124;BME280;69433;48.642;9.142;2023-08-08T07:21:11;97120.84;;;23.76;42.63
80124;BME280;69433;48.642;9.142;2023-08-08T07:23:36;97121.69;;;23.73;42.64
80124;BME280;69433;48.642;9.142;2023-08-08T07:26:01;97121.72;;;23.69;42.34
80124;BME280;69433;48.642;9.142;2023-08-08T07:28:27;97120.59;;;23.66;42.73
80124;BME280;69433;48.642;9.142;2023-08-08T07:30:52;97117.56;;;23.64;42.84
80124;BME280;69433;48.642;9.142;2023-08-08T07:33:18;97110.34;;;23.61;43.96
80124;BME280;69433;48.642;9.142;2023-08-08T07:35:43;97109.63;;;23.57;43.58
80124;BME280;69433;48.642;9.142;2023-08-08T07:38:08;97109.69;;;23.54;43.37
80124;BME280;69433;48.642;9.142;2023-08-08T07:40:34;97115.81;;;23.54;43.03
80124;BME280;69433;48.642;9.142;2023-08-08T07:42:59;97117.31;;;23.55;44.03
80124;BME280;69433;48.642;9.142;2023-08-08T07:45:25;97109.34;;;23.52;43.53
80124;BME280;69433;48.642;9.142;2023-08-08T07:47:50;97111.25;;;23.51;43.37
80124;BME280;69433;48.642;9.142;2023-08-08T07:50:17;97109.34;;;23.48;43.56
80124;BME280;69433;48.642;9.142;2023-08-08T07:52:43;97113.97;;;23.48;44.17
80124;BME280;69433;48.642;9.142;2023-08-08T07:55:08;97107.47;;;23.45;43.30
80124;BME280;69433;48.642;9.142;2023-08-08T07:57:34;97104.38;;;23.47;43.72
80124;BME280;69433;48.642;9.142;2023-08-08T08:00:00;97102.88;;;23.46;43.79
80124;BME280;69433;48.642;9.142;2023-08-08T08:02:32;97098.25;;;23.46;43.78
80124;BME280;69433;48.642;9.142;2023-08-08T08:04:58;97099.78;;;23.47;43.92
80124;BME280;69433;48.642;9.142;2023-08-08T08:07:24;97095.94;;;23.48;43.66
80124;BME280;69433;48.642;9.142;2023-08-08T08:09:49;97090.56;;;23.48;43.87
80124;BME280;69433;48.642;9.142;2023-08-08T08:12:14;97100.94;;;23.50;44.01
80124;BME280;69433;48.642;9.142;2023-08-08T08:14:40;97092.13;;;23.49;43.69
80124;BME280;69433;48.642;9.142;2023-08-08T08:17:05;97100.53;;;23.51;44.40
80124;BME280;69433;48.642;9.142;2023-08-08T08:19:30;97101.28;;;23.52;44.23
80124;BME280;69433;48.642;9.142;2023-08-08T08:21:55;97107.41;;;23.52;43.73
80124;BME280;69433;48.642;9.142;2023-08-08T08:24:21;97102.41;;;23.54;43.64
80124;BME280;69433;48.642;9.142;2023-08-08T08:26:46;97095.53;;;23.53;43.86
80124;BME280;69433;48.642;9.142;2023-08-08T08:29:11;97101.56;;;23.57;43.56
80124;BME280;69433;48.642;9.142;2023-08-08T08:31:37;97102.75;;;23.56;43.57
80124;BME280;69433;48.642;9.142;2023-08-08T08:34:03;97100.06;;;23.56;44.17
80124;BME280;69433;48.642;9.142;2023-08-08T08:36:28;97101.22;;;23.55;43.69
80124;BME280;69433;48.642;9.142;2023-08-08T08:38:54;97098.91;;;23.57;43.73
80124;BME280;69433;48.642;9.142;2023-08-08T08:41:25;97095.41;;;23.60;44.34
80124;BME280;69433;48.642;9.142;2023-08-08T08:43:50;97092.72;;;23.60;43.85
80124;BME280;69433;48.642;9.142;2023-08-08T08:46:20;97096.53;;;23.63;43.51
80124;BME280;69433;48.642;9.142;2023-08-08T08:48:48;97105.66;;;23.65;43.80
80124;BME280;69433;48.642;9.142;2023-08-08T08:51:14;97099.84;;;23.71;43.26
80124;BME280;69433;48.642;9.142;2023-08-08T08:53:41;97086.03;;;23.72;43.15
80124;BME280;69433;48.642;9.142;2023-08-08T08:56:08;97097.09;;;23.74;43.61
80124;BME280;69433;48.642;9.142;2023-08-08T08:58:33;97094.38;;;23.78;43.39
80124;BME280;69433;48.642;9.142;2023-08-08T09:01:00;97098.16;;;23.80;43.37
80124;BME280;69433;48.642;9.142;2023-08-08T09:03:25;97096.59;;;23.83;43.29
80124;BME280;69433;48.642;9.142;2023-08-08T09:05:51;97090.00;;;23.87;43.34
80124;BME280;69433;48.642;9.142;2023-08-08T09:08:19;97085.34;;;23.91;43.41
80124;BME280;69433;48.642;9.142;2023-08-08T09:10:45;97092.16;;;23.96;42.93
80124;BME280;69433;48.642;9.142;2023-08-08T09:13:10;97088.66;;;23.99;42.97
80124;BME280;69433;48.642;9.142;2023-08-08T09:15:35;97085.16;;;24.02;43.17
80124;BME280;69433;48.642;9.142;2023-08-08T09:18:01;97078.94;;;24.05;42.95
80124;BME280;69433;48.642;9.142;2023-08-08T09:20:27;97080.47;;;24.06;43.16
80124;BME280;69433;48.642;9.142;2023-08-08T09:22:55;97073.09;;;24.10;42.75
80124;BME280;69433;48.642;9.142;2023-08-08T09:25:21;97074.19;;;24.13;43.04
80124;BME280;69433;48.642;9.142;2023-08-08T09:27:46;97082.19;;;24.16;43.12
80124;BME280;69433;48.642;9.142;2023-08-08T09:30:12;97078.69;;;24.19;42.81
80124;BME280;69433;48.642;9.142;2023-08-08T09:32:38;97077.88;;;24.22;42.95
80124;BME280;69433;48.642;9.142;2023-08-08T09:35:03;97082.44;;;24.25;42.70
80124;BME280;69433;48.642;9.142;2023-08-08T09:37:30;97065.91;;;24.27;43.11
80124;BME280;69433;48.642;9.142;2023-08-08T09:39:59;97067.03;;;24.29;43.08
80124;BME280;69433;48.642;9.142;2023-08-08T09:42:26;97065.44;;;24.32;42.90
80124;BME280;69433;48.642;9.142;2023-08-08T09:44:52;97075.00;;;24.33;43.12
80124;BME280;69433;48.642;9.142;2023-08-08T09:47:18;97076.94;;;24.32;43.12
80124;BME280;69433;48.642;9.142;2023-08-08T09:49:45;97074.59;;;24.34;42.56
80124;BME280;69433;48.642;9.142;2023-08-08T09:52:10;97071.84;;;24.38;42.47
80124;BME280;69433;48.642;9.142;2023-08-08T09:54:43;97062.53;;;24.42;42.38
80124;BME280;69433;48.642;9.142;2023-08-08T09:57:09;97068.28;;;24.45;42.66
80124;BME280;69433;48.642;9.142;2023-08-08T09:59:35;97055.19;;;24.47;42.56
80124;BME280;69433;48.642;9.142;2023-08-08T10:02:01;97052.84;;;24.49;43.03
80124;BME280;69433;48.642;9.142;2023-08-08T10:04:27;97055.53;;;24.49;43.48
80124;BME280;69433;48.642;9.142;2023-08-08T10:06:52;97057.81;;;24.50;42.88
80124;BME280;69433;48.642;9.142;2023-08-08T10:09:18;97057.38;;;24.52;43.55
80124;BME280;69433;48.642;9.142;2023-08-08T10:11:44;97059.66;;;24.53;43.57
80124;BME280;69433;48.642;9.142;2023-08-08T10:14:10;97051.94;;;24.55;43.47
80124;BME280;69433;48.642;9.142;2023-08-08T10:16:37;97058.00;;;24.59;43.89
80124;BME280;69433;48.642;9.142;2023-08-08T10:19:04;97053.72;;;24.62;43.37
80124;BME280;69433;48.642;9.142;2023-08-08T10:21:43;97057.50;;;24.64;42.97
80124;BME280;69433;48.642;9.142;2023-08-08T10:24:09;97053.25;;;24.67;43.12
80124;BME280;69433;48.642;9.142;2023-08-08T10:26:54;97050.91;;;24.69;42.85
80124;BME280;69433;48.642;9.142;2023-08-08T10:29:24;97055.13;;;24.70;42.96
80124;BME280;69433;48.642;9.142;2023-08-08T10:32:00;97052.75;;;24.72;42.95
80124;BME280;69433;48.642;9.142;2023-08-08T10:34:41;97050.00;;;24.75;43.28
80124;BME280;69433;48.642;9.142;2023-08-08T10:37:14;97046.91;;;24.77;43.51
80124;BME280;69433;48.642;9.142;2023-08-08T10:39:54;97043.03;;;24.78;42.68
80124;BME280;69433;48.642;9.142;2023-08-08T10:42:23;97040.66;;;24.80;42.90
80124;BME280;69433;48.642;9.142;2023-08-08T10:44:59;97053.69;;;24.82;42.58
80124;BME280;69433;48.642;9.142;2023-08-08T10:47:30;97042.88;;;24.85;41.65
80124;BME280;69433;48.642;9.142;2023-08-08T10:50:16;97045.06;;;24.90;41.98
80124;BME280;69433;48.642;9.142;2023-08-08T10:52:54;97040.06;;;24.92;41.74
80124;BME280;69433;48.642;9.142;2023-08-08T10:55:25;97033.50;;;24.93;41.30
80124;BME280;69433;48.642;9.142;2023-08-08T10:57:59;97031.59;;;24.94;40.49
80124;BME280;69433;48.642;9.142;2023-08-08T11:00:27;97031.16;;;24.95;40.12
80124;BME280;69433;48.642;9.142;2023-08-08T11:02:54;97040.34;;;24.98;40.19
80124;BME280;69433;48.642;9.142;2023-08-08T11:05:22;97027.97;;;25.00;40.33
80124;BME280;69433;48.642;9.142;2023-08-08T11:07:48;97027.13;;;25.03;40.59
80124;BME280;69433;48.642;9.142;2023-08-08T11:10:15;97035.91;;;25.07;40.09
80124;BME280;69433;48.642;9.142;2023-08-08T11:12:42;97028.09;;;25.13;40.69
80124;BME280;69433;48.642;9.142;2023-08-08T11:15:45;97011.88;;;25.17;40.18
80124;BME280;69433;48.642;9.142;2023-08-08T11:18:11;97018.41;;;25.16;40.19
80124;BME280;69433;48.642;9.142;2023-08-08T11:20:40;97018.41;;;25.16;40.21
80124;BME280;69433;48.642;9.142;2023-08-08T11:23:05;97029.94;;;25.16;39.77
80124;BME280;69433;48.642;9.142;2023-08-08T11:25:40;97030.28;;;25.18;39.44
80124;BME280;69433;48.642;9.142;2023-08-08T11:28:07;97012.19;;;25.19;39.60
80124;BME280;69433;48.642;9.142;2023-08-08T11:30:36;97022.94;;;25.19;39.51
80124;BME280;69433;48.642;9.142;2023-08-08T11:33:02;97028.31;;;25.19;39.15
80124;BME280;69433;48.642;9.142;2023-08-08T11:35:29;97028.25;;;25.22;39.29
80124;BME280;69433;48.642;9.142;2023-08-08T11:38:00;97025.16;;;25.24;39.71
80124;BME280;69433;48.642;9.142;2023-08-08T11:40:27;97026.66;;;25.25;39.62
80124;BME280;69433;48.642;9.142;2023-08-08T11:42:54;97029.06;;;25.03;45.67
80124;BME280;69433;48.642;9.142;2023-08-08T11:45:19;97014.38;;;24.52;46.32
80124;BME280;69433;48.642;9.142;2023-08-08T11:47:49;97015.81;;;24.17;47.24
80124;BME280;69433;48.642;9.142;2023-08-08T11:50:20;97016.94;;;23.96;47.29
80124;BME280;69433;48.642;9.142;2023-08-08T11:52:48;97016.81;;;23.83;47.42
80124;BME280;69433;48.642;9.142;2023-08-08T11:55:15;97018.09;;;23.75;48.30
80124;BME280;69433;48.642;9.142;2023-08-08T11:57:40;97013.97;;;23.71;47.98
80124;BME280;69433;48.642;9.142;2023-08-08T12:00:07;97015.88;;;23.70;48.38
80124;BME280;69433;48.642;9.142;2023-08-08T12:02:34;97013.59;;;23.68;48.76
80124;BME280;69433;48.642;9.142;2023-08-08T12:05:12;97013.59;;;23.68;48.99
80124;BME280;69433;48.642;9.142;2023-08-08T12:07:38;97015.88;;;23.70;48.54
80124;BME280;69433;48.642;9.142;2023-08-08T12:10:18;97016.56;;;23.74;48.87
80124;BME280;69433;48.642;9.142;2023-08-08T12:12:44;97016.50;;;23.78;48.55
80124;BME280;69433;48.642;9.142;2023-08-08T12:15:11;97014.94;;;23.80;48.22
80124;BME280;69433;48.642;9.142;2023-08-08T12:17:39;96999.50;;;23.84;48.72
80124;BME280;69433;48.642;9.142;2023-08-08T12:20:06;97011.31;;;23.90;48.26
80124;BME280;69433;48.642;9.142;2023-08-08T12:22:32;97006.22;;;23.96;48.23
80124;BME280;69433;48.642;9.142;2023-08-08T12:24:58;97003.06;;;24.01;47.83
80124;BME280;69433;48.642;9.142;2023-08-08T12:27:23;97001.41;;;24.07;47.53
80124;BME280;69433;48.642;9.142;2023-08-08T12:29:48;96999.00;;;24.13;47.24
80124;BME280;69433;48.642;9.142;2023-08-08T12:32:14;96999.28;;;24.18;47.18
80124;BME280;69433;48.642;9.142;2023-08-08T12:34:39;96993.88;;;24.22;46.34
80124;BME280;69433;48.642;9.142;2023-08-08T12:37:04;96986.50;;;24.26;46.24
80124;BME280;69433;48.642;9.142;2023-08-08T12:39:30;96986.44;;;24.29;45.86
80124;BME280;69433;48.642;9.142;2023-08-08T12:41:55;96991.31;;;24.34;46.04
80124;BME280;69433;48.642;9.142;2023-08-08T12:44:21;96988.47;;;24.41;45.46
80124;BME280;69433;48.642;9.142;2023-08-08T12:46:46;96986.81;;;24.48;45.13
80124;BME280;69433;48.642;9.142;2023-08-08T12:49:20;96992.88;;;24.52;44.74
80124;BME280;69433;48.642;9.142;2023-08-08T12:51:46;96987.03;;;24.57;44.40
80124;BME280;69433;48.642;9.142;2023-08-08T12:54:12;96979.22;;;24.62;44.29
80124;BME280;69433;48.642;9.142;2023-08-08T12:56:38;96983.34;;;24.67;44.00